Airport ID:KRTS
Update Time (UTC):21/08/2019 07:52
Wind Speed (Knots):4
Wind Direction (Magnetic):300
Temperature (°C):17
Dew Point (°C):3
Humidity (%):39
Altimeter (inHg):30.18
Density Altitude (Feet):6200
Visibility (Miles):10+
Clouds (Hundreds of feet):CLR
Present Weather:
METAR:METAR KRTS 210750Z AUTO 32004KT 10SM CLR 17/03 A3018 RMK AO2

The data displayed is for advisory purposes only and is not to be used for flight planning or operations.

This page is not automatically refreshed. Reload the page to see current data.